createdAt,value
2023-01-03T00:06:40.708Z,0
2023-01-03T00:16:17.817Z,0
2023-01-03T00:25:55.171Z,0
2023-01-03T00:35:32.494Z,0
2023-01-03T00:45:10.652Z,0
2023-01-03T00:54:45.741Z,0
2023-01-03T01:04:22.908Z,0
2023-01-03T01:13:59.709Z,0
2023-01-03T01:23:36.780Z,0
2023-01-03T01:33:13.850Z,0
2023-01-03T01:42:50.649Z,0
2023-01-03T01:52:27.451Z,0
2023-01-03T02:02:04.928Z,0
2023-01-03T02:11:42.125Z,0
2023-01-03T02:21:20.273Z,0
2023-01-03T02:30:56.050Z,0
2023-01-03T02:40:32.704Z,0
2023-01-03T02:50:09.235Z,0
2023-01-03T02:59:46.938Z,0
2023-01-03T03:09:23.850Z,0
2023-01-03T03:19:00.915Z,0
2023-01-03T03:28:37.502Z,0
2023-01-03T03:38:14.352Z,0
2023-01-03T03:47:51.356Z,0
2023-01-03T03:57:27.588Z,0
2023-01-03T04:07:04.459Z,0
2023-01-03T04:16:41.394Z,0
2023-01-03T04:26:18.334Z,0
2023-01-03T04:35:55.332Z,0
2023-01-03T04:45:32.134Z,0
2023-01-03T04:55:09.156Z,0
2023-01-03T05:04:46.480Z,0
2023-01-03T05:14:23.945Z,0
2023-01-03T05:24:01.156Z,0
2023-01-03T05:33:38.495Z,0
2023-01-03T05:43:15.210Z,0
2023-01-03T05:52:52.035Z,0
2023-01-03T06:02:28.813Z,0
2023-01-03T06:12:05.353Z,0
2023-01-03T06:21:42.063Z,0
2023-01-03T06:31:18.663Z,0
2023-01-03T06:40:55.245Z,0
2023-01-03T06:50:31.996Z,0
2023-01-03T07:00:08.869Z,0
2023-01-03T07:09:45.236Z,0
2023-01-03T07:19:22.178Z,5.63
2023-01-03T07:28:58.642Z,11.25
2023-01-03T07:38:34.217Z,22.5
2023-01-03T07:48:10.852Z,33.75
2023-01-03T07:57:47.706Z,45
2023-01-03T08:07:24.509Z,50.63
2023-01-03T08:17:01.819Z,56.25
2023-01-03T08:26:39.307Z,67.5
2023-01-03T08:36:16.392Z,78.75
2023-01-03T08:45:53.434Z,84.38
2023-01-03T08:55:30.714Z,95.63
2023-01-03T09:05:08.073Z,101.25
2023-01-03T09:14:45.529Z,112.5
2023-01-03T09:24:22.750Z,118.13
2023-01-03T09:33:59.904Z,123.75
2023-01-03T09:43:37.297Z,129.38
2023-01-03T09:53:14.933Z,135
2023-01-03T10:02:53.108Z,140.63
2023-01-03T10:12:31.068Z,146.25
2023-01-03T10:22:08.987Z,151.88
2023-01-03T10:31:46.851Z,157.5
2023-01-03T10:41:24.645Z,163.13
2023-01-03T10:51:02.046Z,168.75
2023-01-03T11:00:39.773Z,174.38
2023-01-03T11:10:17.727Z,180
2023-01-03T11:19:55.394Z,185.63
2023-01-03T11:29:32.919Z,185.63
2023-01-03T11:38:42.368Z,196.88
2023-01-03T11:48:20.102Z,191.25
2023-01-03T11:57:57.597Z,208.13
2023-01-03T12:07:47.364Z,225
2023-01-03T12:17:12.132Z,208.13
2023-01-03T12:26:49.812Z,202.5
2023-01-03T12:36:27.034Z,174.38
2023-01-03T12:46:10.385Z,213.75
2023-01-03T12:55:41.872Z,213.75
2023-01-03T13:05:20.462Z,1873.13
2023-01-03T13:15:38.102Z,2700
2023-01-03T13:25:21.304Z,2362.5
2023-01-03T13:44:24.489Z,1344.38
2023-01-03T13:53:56.732Z,1501.88
2023-01-03T14:03:48.001Z,1811.25
2023-01-03T14:13:09.501Z,191.25
2023-01-03T14:22:48.968Z,258.75
2023-01-03T14:32:19.700Z,163.13
2023-01-03T14:41:53.303Z,95.63
2023-01-03T14:51:27.092Z,67.5
2023-01-03T15:01:01.527Z,50.63
2023-01-03T15:10:37.509Z,28.13
2023-01-03T15:20:13.178Z,16.88
2023-01-03T15:29:49.164Z,5.63
2023-01-03T15:39:25.657Z,0
2023-01-03T15:49:02.309Z,0
2023-01-03T15:58:38.265Z,0
2023-01-03T16:08:14.817Z,0
2023-01-03T16:17:51.503Z,0
2023-01-03T16:27:27.962Z,0
2023-01-03T16:37:04.585Z,0
2023-01-03T16:46:40.859Z,0
2023-01-03T16:56:16.467Z,0
2023-01-03T17:05:54.116Z,0
2023-01-03T17:15:31.290Z,0
2023-01-03T17:25:08.128Z,0
2023-01-03T17:34:45.138Z,0
2023-01-03T17:54:00.265Z,0
2023-01-03T18:03:37.974Z,0
2023-01-03T18:13:15.619Z,0
2023-01-03T18:22:53.072Z,0
2023-01-03T18:32:30.016Z,0
2023-01-03T18:42:06.581Z,0
2023-01-03T18:51:42.850Z,0
2023-01-03T19:01:19.483Z,0
2023-01-03T19:10:55.830Z,0
2023-01-03T19:20:32.536Z,0
2023-01-03T19:30:09.548Z,0
2023-01-03T19:39:46.213Z,0
2023-01-03T19:49:22.431Z,0
2023-01-03T19:59:03.012Z,0
2023-01-03T20:08:36.538Z,0
2023-01-03T20:18:12.562Z,0
2023-01-03T20:27:49.926Z,0
2023-01-03T20:37:26.006Z,0
2023-01-03T20:47:02.710Z,0
2023-01-03T20:56:39.479Z,0
2023-01-03T21:06:16.551Z,0
2023-01-03T21:15:53.738Z,0
2023-01-03T21:25:30.145Z,0
2023-01-03T21:35:07.080Z,0
2023-01-03T21:44:43.796Z,0
2023-01-03T21:54:20.040Z,0
2023-01-03T22:03:56.465Z,0
2023-01-03T22:13:33.076Z,0
2023-01-03T22:23:09.438Z,0
2023-01-03T22:32:45.836Z,0
2023-01-03T22:42:22.944Z,0
2023-01-03T22:52:00.018Z,0
2023-01-03T23:01:36.889Z,0
2023-01-03T23:11:13.251Z,0
2023-01-03T23:20:50.106Z,0
2023-01-03T23:30:26.189Z,0
2023-01-03T23:40:02.496Z,0
2023-01-03T23:49:39.363Z,0
2023-01-03T23:59:16.375Z,0
